createdAt,value
2018-12-19T00:01:22.497Z,60.55
2018-12-19T00:03:49.922Z,60.76
2018-12-19T00:06:17.434Z,61.07
2018-12-19T00:08:44.816Z,61.23
2018-12-19T00:11:12.200Z,60.98
2018-12-19T00:13:39.601Z,60.12
2018-12-19T00:16:06.989Z,60.76
2018-12-19T00:18:34.389Z,60.79
2018-12-19T00:21:01.772Z,60.54
2018-12-19T00:23:29.194Z,60.78
2018-12-19T00:25:56.599Z,60.71
2018-12-19T00:28:23.986Z,61.19
2018-12-19T00:30:51.448Z,61.07
2018-12-19T00:33:18.837Z,61.48
2018-12-19T00:35:46.230Z,61.46
2018-12-19T00:38:13.626Z,61.43
2018-12-19T00:40:41.017Z,61.70
2018-12-19T00:43:08.412Z,61.53
2018-12-19T00:45:35.818Z,62.01
2018-12-19T00:48:03.201Z,62.21
2018-12-19T00:50:30.584Z,62.16
2018-12-19T00:52:58.005Z,61.24
2018-12-19T00:55:25.414Z,61.75
2018-12-19T00:57:53.074Z,61.85
2018-12-19T01:00:20.470Z,61.75
2018-12-19T01:02:47.856Z,61.84
2018-12-19T01:05:15.294Z,61.76
2018-12-19T01:07:42.698Z,61.70
2018-12-19T01:10:10.120Z,61.89
2018-12-19T01:12:37.533Z,61.95
2018-12-19T01:15:05.921Z,61.74
2018-12-19T01:17:33.300Z,61.67
2018-12-19T01:20:00.901Z,61.17
2018-12-19T01:22:28.361Z,61.08
2018-12-19T01:24:55.761Z,61.19
2018-12-19T01:27:23.145Z,61.21
2018-12-19T01:29:50.737Z,60.49
2018-12-19T01:32:18.125Z,60.14
2018-12-19T01:34:45.659Z,60.38
2018-12-19T01:37:13.134Z,60.38
2018-12-19T01:39:40.525Z,60.88
2018-12-19T01:42:07.927Z,60.69
2018-12-19T02:01:43.470Z,60.09
2018-12-19T02:04:10.849Z,59.98
2018-12-19T02:06:38.525Z,59.80
2018-12-19T02:09:06.944Z,60.12
2018-12-19T02:11:34.426Z,59.94
2018-12-19T02:14:02.041Z,60.21
2018-12-19T02:16:29.476Z,60.08
2018-12-19T02:18:56.866Z,60.42
2018-12-19T02:21:24.264Z,59.68
2018-12-19T02:23:51.649Z,60.37
2018-12-19T02:26:19.089Z,59.93
2018-12-19T02:28:46.521Z,59.80
2018-12-19T02:31:13.923Z,60.36
2018-12-19T02:33:41.338Z,60.50
2018-12-19T02:36:08.729Z,60.07
2018-12-19T02:38:36.125Z,59.89
2018-12-19T02:41:03.561Z,60.26
2018-12-19T02:43:30.957Z,60.83
2018-12-19T02:45:58.356Z,60.36
2018-12-19T02:48:25.779Z,60.71
2018-12-19T02:50:53.164Z,60.74
2018-12-19T02:53:20.552Z,60.79
2018-12-19T02:55:47.950Z,60.86
2018-12-19T02:58:15.335Z,61.73
2018-12-19T03:00:42.797Z,62.39
2018-12-19T03:03:10.236Z,61.62
2018-12-19T03:05:37.638Z,62.54
2018-12-19T03:08:05.092Z,62.25
2018-12-19T03:10:32.482Z,62.63
2018-12-19T03:12:59.878Z,62.07
2018-12-19T03:15:27.263Z,63.25
2018-12-19T03:17:54.893Z,61.77
2018-12-19T03:20:22.431Z,61.96
2018-12-19T03:22:49.823Z,62.22
2018-12-19T03:25:17.292Z,61.51
2018-12-19T03:27:44.672Z,62.00
2018-12-19T03:30:12.256Z,61.51
2018-12-19T03:32:39.722Z,61.53
2018-12-19T03:35:07.309Z,61.17
2018-12-19T03:37:34.693Z,61.37
2018-12-19T03:40:02.120Z,61.32
2018-12-19T03:42:29.514Z,61.47
2018-12-19T03:44:56.918Z,61.60
2018-12-19T03:47:24.308Z,61.29
2018-12-19T03:49:51.950Z,61.24
2018-12-19T03:52:19.417Z,60.88
2018-12-19T03:54:46.853Z,61.33
2018-12-19T03:57:14.560Z,61.19
2018-12-19T03:59:41.960Z,60.66
2018-12-19T04:02:09.413Z,61.92
2018-12-19T04:04:36.814Z,62.51
2018-12-19T04:07:04.202Z,62.35
2018-12-19T04:09:31.978Z,62.66
2018-12-19T04:11:59.444Z,63.97
2018-12-19T04:14:26.913Z,64.55
2018-12-19T04:16:54.329Z,64.12
2018-12-19T04:19:21.727Z,64.94
2018-12-19T04:21:49.119Z,65.70
2018-12-19T04:24:16.647Z,65.81
2018-12-19T04:26:44.122Z,66.95
2018-12-19T04:29:11.584Z,66.45
2018-12-19T04:31:38.981Z,66.92
2018-12-19T04:34:06.488Z,67.71
2018-12-19T04:36:33.890Z,67.57
2018-12-19T04:39:01.282Z,66.96
2018-12-19T04:41:28.669Z,68.03
2018-12-19T04:43:56.057Z,67.63
2018-12-19T04:46:23.450Z,68.09
2018-12-19T04:48:50.827Z,68.32
2018-12-19T04:51:18.216Z,68.04
2018-12-19T04:53:45.619Z,68.33
2018-12-19T04:56:13.094Z,68.77
2018-12-19T04:58:40.477Z,68.91
2018-12-19T05:01:07.951Z,68.61
2018-12-19T05:03:35.461Z,69.39
2018-12-19T05:06:02.846Z,68.85
2018-12-19T05:08:30.313Z,69.08
2018-12-19T05:10:57.707Z,69.15
2018-12-19T05:13:25.089Z,69.14
2018-12-19T05:15:52.484Z,69.87
2018-12-19T05:18:19.878Z,69.39
2018-12-19T05:20:47.258Z,69.35
2018-12-19T05:23:14.652Z,69.28
2018-12-19T05:25:42.042Z,69.22
2018-12-19T05:28:09.424Z,69.33
2018-12-19T05:30:36.809Z,69.40
2018-12-19T05:33:04.200Z,68.99
2018-12-19T05:35:31.591Z,68.92
2018-12-19T05:37:59.014Z,69.47
2018-12-19T05:40:26.388Z,69.11
2018-12-19T05:42:53.771Z,69.01
2018-12-19T05:45:21.154Z,69.08
2018-12-19T05:47:48.637Z,69.41
2018-12-19T05:50:16.546Z,68.94
2018-12-19T05:52:43.997Z,68.54
2018-12-19T05:55:11.384Z,68.74
2018-12-19T05:57:38.820Z,68.95
2018-12-19T06:00:07.641Z,69.00
2018-12-19T06:02:35.037Z,68.57
2018-12-19T06:05:02.817Z,68.74
2018-12-19T06:07:30.204Z,69.03
2018-12-19T06:09:57.596Z,69.18
2018-12-19T06:12:25.030Z,69.25
2018-12-19T06:14:52.506Z,69.47
2018-12-19T06:17:19.933Z,69.18
2018-12-19T06:19:47.329Z,69.11
2018-12-19T06:22:14.752Z,69.52
2018-12-19T06:24:42.141Z,69.63
2018-12-19T06:27:09.587Z,69.86
2018-12-19T06:29:37.048Z,69.63
2018-12-19T06:32:04.430Z,70.01
2018-12-19T06:34:31.816Z,69.97
2018-12-19T06:36:59.222Z,69.86
2018-12-19T06:39:27.201Z,69.99
2018-12-19T06:41:54.628Z,69.76
2018-12-19T06:44:22.027Z,69.95
2018-12-19T06:46:49.409Z,69.83
2018-12-19T06:49:16.793Z,69.90
2018-12-19T06:51:44.257Z,69.63
2018-12-19T06:54:11.641Z,69.75
2018-12-19T06:56:39.068Z,69.92
2018-12-19T06:59:06.456Z,69.96
2018-12-19T07:01:33.847Z,69.87
2018-12-19T07:04:01.252Z,70.27
2018-12-19T07:06:28.706Z,69.97
2018-12-19T07:08:56.429Z,69.52
2018-12-19T07:11:24.064Z,69.28
2018-12-19T07:13:51.505Z,69.61
2018-12-19T07:16:18.932Z,69.69
2018-12-19T07:18:46.322Z,69.66
2018-12-19T07:21:13.857Z,69.66
2018-12-19T07:23:41.357Z,69.80
2018-12-19T07:26:08.740Z,69.74
2018-12-19T07:28:36.201Z,69.68
2018-12-19T07:31:03.634Z,69.69
2018-12-19T07:33:31.024Z,69.63
2018-12-19T07:35:58.417Z,69.85
2018-12-19T07:38:25.809Z,69.77
2018-12-19T07:40:53.243Z,69.62
2018-12-19T07:43:20.709Z,69.80
2018-12-19T07:45:48.128Z,69.80
2018-12-19T07:48:15.753Z,70.39
2018-12-19T07:50:43.136Z,69.86
2018-12-19T07:53:10.876Z,70.18
2018-12-19T07:55:39.112Z,70.32
2018-12-19T07:58:06.510Z,70.03
2018-12-19T08:00:33.890Z,70.19
2018-12-19T08:03:01.418Z,70.09
2018-12-19T08:05:28.890Z,70.19
2018-12-19T08:07:56.280Z,70.23
2018-12-19T08:10:23.711Z,70.46
2018-12-19T08:12:51.148Z,70.14
2018-12-19T08:15:18.532Z,70.04
2018-12-19T08:17:45.930Z,70.18
2018-12-19T08:20:13.309Z,70.24
2018-12-19T08:22:40.704Z,70.43
2018-12-19T08:25:08.140Z,70.28
2018-12-19T08:27:35.561Z,70.14
2018-12-19T08:30:03.442Z,70.21
2018-12-19T08:32:30.847Z,70.13
2018-12-19T08:34:58.228Z,69.90
2018-12-19T08:37:25.630Z,70.01
2018-12-19T08:39:53.008Z,70.11
2018-12-19T08:42:20.569Z,70.11
2018-12-19T08:44:48.024Z,70.24
2018-12-19T08:47:15.416Z,70.25
2018-12-19T08:49:42.809Z,70.06
2018-12-19T08:52:10.201Z,70.13
2018-12-19T08:54:37.641Z,70.20
2018-12-19T08:57:05.156Z,69.94
2018-12-19T08:59:32.537Z,70.13
2018-12-19T09:01:59.924Z,70.00
2018-12-19T09:04:27.352Z,69.87
2018-12-19T09:06:54.742Z,69.82
2018-12-19T09:09:22.139Z,69.45
2018-12-19T09:11:50.127Z,69.35
2018-12-19T09:14:17.687Z,69.03
2018-12-19T09:16:45.133Z,68.76
2018-12-19T09:19:12.521Z,68.54
2018-12-19T09:21:39.908Z,68.56
2018-12-19T09:24:07.292Z,68.57
2018-12-19T09:26:34.726Z,68.50
2018-12-19T09:29:02.127Z,67.89
2018-12-19T09:31:29.504Z,67.95
2018-12-19T09:33:56.952Z,67.99
2018-12-19T09:36:24.459Z,67.88
2018-12-19T09:38:51.850Z,67.70
2018-12-19T09:41:19.299Z,67.27
2018-12-19T09:43:46.761Z,67.70
2018-12-19T09:46:14.144Z,67.44
2018-12-19T09:48:41.532Z,67.96
2018-12-19T09:51:08.917Z,68.06
2018-12-19T09:53:36.303Z,68.23
2018-12-19T09:56:03.812Z,68.13
2018-12-19T09:58:31.248Z,68.25
2018-12-19T10:00:58.901Z,68.53
2018-12-19T10:03:26.402Z,68.42
2018-12-19T10:05:53.794Z,68.18
2018-12-19T10:08:21.213Z,68.17
2018-12-19T10:10:48.604Z,67.83
2018-12-19T10:13:15.991Z,67.94
2018-12-19T10:15:43.464Z,67.20
2018-12-19T10:18:10.857Z,68.03
2018-12-19T10:20:38.244Z,67.32
2018-12-19T10:23:05.625Z,66.82
2018-12-19T10:25:33.100Z,65.79
2018-12-19T10:28:00.477Z,63.24
2018-12-19T10:30:27.865Z,61.41
2018-12-19T10:32:55.598Z,60.47
2018-12-19T10:35:23.749Z,58.72
2018-12-19T10:37:51.129Z,58.27
2018-12-19T10:40:18.521Z,58.41
2018-12-19T10:42:45.901Z,57.97
2018-12-19T10:45:13.291Z,58.11
2018-12-19T10:47:40.758Z,58.22
2018-12-19T10:50:08.431Z,58.49
2018-12-19T10:52:35.820Z,58.84
2018-12-19T10:55:03.797Z,59.15
2018-12-19T10:57:31.187Z,58.65
2018-12-19T10:59:58.608Z,58.98
2018-12-19T11:02:27.364Z,58.45
2018-12-19T11:04:54.858Z,58.34
2018-12-19T11:07:22.318Z,57.80
2018-12-19T11:09:49.691Z,57.44
2018-12-19T11:12:17.080Z,57.55
2018-12-19T11:14:44.462Z,56.64
2018-12-19T11:17:11.884Z,56.77
2018-12-19T11:19:39.273Z,56.40
2018-12-19T11:22:08.608Z,56.07
2018-12-19T11:24:36.064Z,56.67
2018-12-19T11:27:03.643Z,56.08
2018-12-19T11:29:31.050Z,56.93
2018-12-19T11:31:58.519Z,56.01
2018-12-19T11:34:25.908Z,56.11
2018-12-19T11:36:54.304Z,57.01
2018-12-19T11:39:21.688Z,57.38
2018-12-19T11:41:49.073Z,57.09
2018-12-19T11:44:16.457Z,57.87
2018-12-19T11:46:43.840Z,57.77
2018-12-19T11:49:11.382Z,56.96
2018-12-19T11:51:38.769Z,56.46
2018-12-19T11:54:06.260Z,57.01
2018-12-19T11:56:33.717Z,57.04
2018-12-19T11:59:01.105Z,56.59
2018-12-19T12:01:28.491Z,57.37
2018-12-19T12:03:55.901Z,57.44
2018-12-19T12:06:23.374Z,57.67
2018-12-19T12:08:50.765Z,58.22
2018-12-19T12:11:18.154Z,58.71
2018-12-19T12:13:45.539Z,59.45
2018-12-19T12:16:13.141Z,59.68
2018-12-19T12:18:40.530Z,59.25
2018-12-19T12:21:07.913Z,59.85
2018-12-19T12:23:35.298Z,59.91
2018-12-19T12:26:02.720Z,60.45
2018-12-19T12:28:30.336Z,60.61
2018-12-19T12:30:57.713Z,60.53
2018-12-19T12:33:25.088Z,60.66
2018-12-19T12:35:52.809Z,60.57
2018-12-19T12:38:20.199Z,60.76
2018-12-19T12:40:47.700Z,60.28
2018-12-19T12:43:15.094Z,60.52
2018-12-19T12:45:42.482Z,61.06
2018-12-19T12:48:09.869Z,60.59
2018-12-19T12:50:37.258Z,60.77
2018-12-19T12:53:04.732Z,60.35
2018-12-19T12:55:32.125Z,60.50
2018-12-19T12:57:59.509Z,60.25
2018-12-19T13:00:26.893Z,60.35
2018-12-19T13:02:54.280Z,60.23
2018-12-19T13:05:23.564Z,60.16
2018-12-19T13:07:51.038Z,58.75
2018-12-19T13:10:18.448Z,59.19
2018-12-19T13:12:45.864Z,59.58
2018-12-19T13:15:15.248Z,59.57
2018-12-19T13:17:42.972Z,58.64
2018-12-19T13:20:10.410Z,58.47
2018-12-19T13:22:37.869Z,58.38
2018-12-19T13:25:05.372Z,58.42
2018-12-19T13:27:32.755Z,57.64
2018-12-19T13:30:00.169Z,57.53
2018-12-19T13:32:27.628Z,57.70
2018-12-19T13:34:55.013Z,57.61
2018-12-19T13:37:22.473Z,57.14
2018-12-19T13:39:49.867Z,58.13
2018-12-19T13:42:17.325Z,56.22
2018-12-19T13:44:44.705Z,56.24
2018-12-19T13:47:12.092Z,56.21
2018-12-19T13:49:39.599Z,56.21
2018-12-19T13:52:06.985Z,57.23
2018-12-19T13:54:34.369Z,56.01
2018-12-19T13:57:01.840Z,56.10
2018-12-19T13:59:29.221Z,55.75
2018-12-19T14:01:56.618Z,54.92
2018-12-19T14:04:24.090Z,55.58
2018-12-19T14:06:51.476Z,54.74
2018-12-19T14:09:19.329Z,55.70
2018-12-19T14:11:46.705Z,55.79
2018-12-19T14:14:14.265Z,55.99
2018-12-19T14:16:41.717Z,56.53
2018-12-19T14:19:09.163Z,56.93
2018-12-19T14:21:36.559Z,57.44
2018-12-19T14:24:04.030Z,58.07
2018-12-19T14:26:31.460Z,58.55
2018-12-19T14:28:59.013Z,58.91
2018-12-19T14:31:26.579Z,59.32
2018-12-19T14:33:54.033Z,60.21
2018-12-19T14:36:21.404Z,60.47
2018-12-19T14:38:48.810Z,60.76
2018-12-19T14:41:16.183Z,61.00
2018-12-19T14:43:43.573Z,61.20
2018-12-19T14:46:11.009Z,61.15
2018-12-19T14:48:38.465Z,61.77
2018-12-19T14:51:05.891Z,61.75
2018-12-19T14:53:33.275Z,61.63
2018-12-19T14:56:00.658Z,61.76
2018-12-19T14:58:28.088Z,62.02
2018-12-19T15:00:55.469Z,62.11
2018-12-19T15:03:22.854Z,62.35
2018-12-19T15:05:50.242Z,62.44
2018-12-19T15:08:17.621Z,62.54
2018-12-19T15:10:45.140Z,62.49
2018-12-19T15:13:12.528Z,62.46
2018-12-19T15:15:41.844Z,62.54
2018-12-19T15:18:09.354Z,62.65
2018-12-19T15:20:36.738Z,62.56
2018-12-19T15:23:04.116Z,62.70
2018-12-19T15:25:31.498Z,62.68
2018-12-19T15:27:58.885Z,62.17
2018-12-19T15:30:26.345Z,62.20
2018-12-19T15:32:53.977Z,62.37
2018-12-19T15:35:21.351Z,62.03
2018-12-19T15:37:48.809Z,62.00
2018-12-19T15:40:16.180Z,61.50
2018-12-19T15:42:43.685Z,61.77
2018-12-19T15:45:11.108Z,62.21
2018-12-19T15:47:38.507Z,62.26
2018-12-19T15:50:06.677Z,61.89
2018-12-19T15:52:34.052Z,62.22
2018-12-19T15:55:01.436Z,62.25
2018-12-19T15:57:28.889Z,62.19
2018-12-19T16:03:01.139Z,62.30
2018-12-19T16:05:28.507Z,62.14
2018-12-19T16:07:55.928Z,62.11
2018-12-19T16:10:23.356Z,62.34
2018-12-19T16:12:50.739Z,62.29
2018-12-19T16:15:18.124Z,62.39
2018-12-19T16:17:45.496Z,62.20
2018-12-19T16:20:12.876Z,62.71
2018-12-19T16:22:40.279Z,62.58
2018-12-19T16:25:07.821Z,62.70
2018-12-19T16:27:35.185Z,62.69
2018-12-19T16:30:02.648Z,62.80
2018-12-19T16:32:30.028Z,63.11
2018-12-19T16:34:57.637Z,63.40
2018-12-19T16:37:25.018Z,63.04
2018-12-19T16:39:52.416Z,63.71
2018-12-19T16:42:19.861Z,64.13
2018-12-19T16:44:47.313Z,64.42
2018-12-19T16:47:14.737Z,64.36
2018-12-19T16:49:42.207Z,64.73
2018-12-19T16:52:09.666Z,64.79
2018-12-19T16:54:37.053Z,64.92
2018-12-19T16:57:04.498Z,65.13
2018-12-19T16:59:31.904Z,65.22
2018-12-19T17:01:59.292Z,65.44
2018-12-19T17:04:26.685Z,65.57
2018-12-19T17:06:54.065Z,65.37
2018-12-19T17:09:21.458Z,65.88
2018-12-19T17:11:48.846Z,66.01
2018-12-19T17:14:16.333Z,65.89
2018-12-19T17:16:43.833Z,65.96
2018-12-19T17:19:11.229Z,65.86
2018-12-19T17:21:38.702Z,65.84
2018-12-19T17:24:06.072Z,65.98
2018-12-19T17:26:33.704Z,66.17
2018-12-19T17:29:01.205Z,66.21
2018-12-19T17:31:28.610Z,66.32
2018-12-19T17:33:56.080Z,66.71
2018-12-19T17:36:23.513Z,66.87
2018-12-19T17:38:50.896Z,66.67
2018-12-19T17:41:18.294Z,66.98
2018-12-19T17:43:45.670Z,67.08
2018-12-19T17:46:13.072Z,67.05
2018-12-19T17:48:40.450Z,67.08
2018-12-19T17:51:07.907Z,67.58
2018-12-19T17:53:35.393Z,67.03
2018-12-19T17:56:02.786Z,66.95
2018-12-19T17:58:30.186Z,66.88
2018-12-19T18:00:57.802Z,67.05
2018-12-19T18:03:25.266Z,67.15
2018-12-19T18:05:53.018Z,66.96
2018-12-19T18:08:20.401Z,66.92
2018-12-19T18:10:47.830Z,66.76
2018-12-19T18:13:15.215Z,66.92
2018-12-19T18:15:42.671Z,66.72
2018-12-19T18:18:10.067Z,66.60
2018-12-19T18:20:37.568Z,66.71
2018-12-19T18:23:04.952Z,66.67
2018-12-19T18:25:32.334Z,66.82
2018-12-19T18:27:59.717Z,66.83
2018-12-19T18:30:27.103Z,66.98
2018-12-19T18:32:54.480Z,66.88
2018-12-19T18:35:21.856Z,66.99
2018-12-19T18:37:49.275Z,66.85
2018-12-19T18:40:16.689Z,66.96
2018-12-19T18:42:44.073Z,67.13
2018-12-19T18:45:12.045Z,67.08
2018-12-19T18:47:39.629Z,67.39
2018-12-19T18:50:08.000Z,67.15
2018-12-19T18:52:36.100Z,67.21
2018-12-19T18:55:04.436Z,67.04
2018-12-19T18:57:32.021Z,67.18
2018-12-19T18:59:59.444Z,67.25
2018-12-19T19:02:26.893Z,67.25
2018-12-19T19:04:54.326Z,67.61
2018-12-19T19:07:21.792Z,67.58
2018-12-19T19:09:49.256Z,67.70
2018-12-19T19:12:16.649Z,67.82
2018-12-19T19:14:44.053Z,67.81
2018-12-19T19:17:11.599Z,67.84
2018-12-19T19:19:38.984Z,67.98
2018-12-19T19:22:06.673Z,68.12
2018-12-19T19:24:34.204Z,68.04
2018-12-19T19:27:01.722Z,68.15
2018-12-19T19:29:29.494Z,68.25
2018-12-19T19:31:56.882Z,68.40
2018-12-19T19:34:25.149Z,68.72
2018-12-19T19:36:52.990Z,68.40
2018-12-19T19:39:20.430Z,68.53
2018-12-19T19:41:47.835Z,68.62
2018-12-19T19:44:15.755Z,68.39
2018-12-19T19:46:43.238Z,68.52
2018-12-19T19:49:10.701Z,68.46
2018-12-19T19:51:38.091Z,68.69
2018-12-19T19:54:05.543Z,68.54
2018-12-19T19:56:33.008Z,68.73
2018-12-19T19:59:00.469Z,68.66
2018-12-19T20:01:28.639Z,68.73
2018-12-19T20:03:56.147Z,68.75
2018-12-19T20:06:23.538Z,69.06
2018-12-19T20:08:50.959Z,69.15
2018-12-19T20:11:18.370Z,69.12
2018-12-19T20:13:45.787Z,69.13
2018-12-19T20:16:13.185Z,69.24
2018-12-19T20:18:40.698Z,69.27
2018-12-19T20:21:08.138Z,69.08
2018-12-19T20:23:35.927Z,69.30
2018-12-19T20:26:03.345Z,69.35
2018-12-19T20:28:30.760Z,69.59
2018-12-19T20:30:58.217Z,69.61
2018-12-19T20:33:26.256Z,69.72
2018-12-19T20:35:54.013Z,69.76
2018-12-19T20:38:21.471Z,69.85
2018-12-19T20:40:48.991Z,69.89
2018-12-19T20:43:16.415Z,69.98
2018-12-19T20:45:44.020Z,70.14
2018-12-19T20:48:11.440Z,70.32
2018-12-19T20:50:38.831Z,70.49
2018-12-19T20:53:06.353Z,71.28
2018-12-19T20:55:33.767Z,71.32
2018-12-19T20:58:01.172Z,71.86
2018-12-19T21:00:28.706Z,71.73
2018-12-19T21:02:56.193Z,72.10
2018-12-19T21:05:23.667Z,71.99
2018-12-19T21:07:51.058Z,72.58
2018-12-19T21:10:18.493Z,72.71
2018-12-19T21:12:45.902Z,72.72
2018-12-19T21:15:13.296Z,72.94
2018-12-19T21:17:46.239Z,73.22
2018-12-19T21:20:13.752Z,73.50
2018-12-19T21:22:41.148Z,73.55
2018-12-19T21:25:08.661Z,74.25
2018-12-19T21:27:36.050Z,74.00
2018-12-19T21:30:04.130Z,74.15
2018-12-19T21:32:31.596Z,74.37
2018-12-19T21:34:58.992Z,74.24
2018-12-19T21:37:26.382Z,74.57
2018-12-19T21:39:53.927Z,74.37
2018-12-19T21:42:21.429Z,74.46
2018-12-19T21:44:48.893Z,74.87
2018-12-19T21:47:16.541Z,74.43
2018-12-19T21:49:43.939Z,74.65
2018-12-19T21:52:11.418Z,74.72
2018-12-19T21:54:38.877Z,74.69
2018-12-19T21:57:06.284Z,74.88
2018-12-19T21:59:33.746Z,75.13
2018-12-19T22:02:01.293Z,75.21
2018-12-19T22:04:28.706Z,75.43
2018-12-19T22:06:56.290Z,75.02
2018-12-19T22:09:23.767Z,75.24
2018-12-19T22:11:51.286Z,75.17
2018-12-19T22:14:18.796Z,75.08
2018-12-19T22:16:51.888Z,75.06
2018-12-19T22:19:19.975Z,75.43
2018-12-19T22:21:47.361Z,74.97
2018-12-19T22:24:14.913Z,75.05
2018-12-19T22:26:42.316Z,74.83
2018-12-19T22:29:09.882Z,74.77
2018-12-19T22:31:37.342Z,74.58
2018-12-19T22:34:04.925Z,74.50
2018-12-19T22:36:32.546Z,74.45
2018-12-19T22:38:59.967Z,74.43
2018-12-19T22:41:27.401Z,74.46
2018-12-19T22:43:54.870Z,74.49
2018-12-19T22:46:22.310Z,74.53
2018-12-19T22:48:49.940Z,74.40
2018-12-19T22:51:17.402Z,74.38
2018-12-19T22:53:44.811Z,74.39
2018-12-19T22:56:12.281Z,74.28
2018-12-19T22:58:40.090Z,74.33
2018-12-19T23:01:13.337Z,74.54
2018-12-19T23:06:36.834Z,74.31
2018-12-19T23:09:06.705Z,74.26
2018-12-19T23:11:34.318Z,74.36
2018-12-19T23:14:01.761Z,74.24
2018-12-19T23:16:29.255Z,74.35
2018-12-19T23:18:56.728Z,74.24
2018-12-19T23:21:24.501Z,74.53
2018-12-19T23:23:51.993Z,74.22
2018-12-19T23:26:19.998Z,74.39
2018-12-19T23:28:47.584Z,74.62
2018-12-19T23:31:15.110Z,74.58
2018-12-19T23:33:42.571Z,74.87
2018-12-19T23:36:10.032Z,75.22
2018-12-19T23:38:37.619Z,75.57
2018-12-19T23:41:05.374Z,75.54
2018-12-19T23:43:32.943Z,75.41
2018-12-19T23:46:00.623Z,75.67
2018-12-19T23:48:28.055Z,75.36
2018-12-19T23:50:55.461Z,75.24
2018-12-19T23:53:22.912Z,75.24
2018-12-19T23:55:50.364Z,74.90
2018-12-19T23:58:17.943Z,75.18
